createdAt,value
2024-03-07T00:00:20.017Z,20.14
2024-03-07T00:03:09.678Z,20.06
2024-03-07T00:05:41.166Z,19.29
2024-03-07T00:08:09.391Z,19.74
2024-03-07T00:10:38.500Z,20.67
2024-03-07T00:13:06.855Z,20.43
2024-03-07T00:15:35.890Z,19.27
2024-03-07T00:18:04.878Z,19.05
2024-03-07T00:20:33.954Z,19.16
2024-03-07T00:23:04.394Z,18.31
2024-03-07T00:25:33.306Z,19.98
2024-03-07T00:28:04.460Z,20.85
2024-03-07T00:30:35.147Z,19.73
2024-03-07T00:33:03.637Z,19.12
2024-03-07T00:35:32.356Z,20.43
2024-03-07T00:38:00.892Z,20.71
2024-03-07T00:40:31.036Z,20.63
2024-03-07T00:43:00.583Z,19.72
2024-03-07T00:45:29.142Z,20.42
2024-03-07T00:47:57.800Z,20.00
2024-03-07T00:50:26.751Z,19.57
2024-03-07T00:52:55.301Z,21.46
2024-03-07T00:55:23.902Z,20.77
2024-03-07T00:57:53.705Z,20.58
2024-03-07T01:00:22.968Z,20.24
2024-03-07T01:02:54.612Z,19.50
2024-03-07T01:05:23.503Z,19.27
2024-03-07T01:07:52.001Z,19.03
2024-03-07T01:10:21.326Z,18.93
2024-03-07T01:12:51.486Z,19.53
2024-03-07T01:15:21.688Z,19.76
2024-03-07T01:17:50.389Z,20.30
2024-03-07T01:20:19.784Z,19.45
2024-03-07T01:22:48.382Z,19.83
2024-03-07T01:25:17.981Z,19.99
2024-03-07T01:27:48.831Z,19.74
2024-03-07T01:30:18.026Z,19.20
2024-03-07T01:32:47.885Z,19.03
2024-03-07T01:35:16.871Z,18.57
2024-03-07T01:37:45.377Z,18.07
2024-03-07T01:40:15.429Z,17.90
2024-03-07T01:42:43.805Z,17.83
2024-03-07T01:45:12.498Z,18.31
2024-03-07T01:47:41.155Z,18.89
2024-03-07T01:50:12.043Z,18.32
2024-03-07T01:52:42.721Z,18.30
2024-03-07T01:55:12.198Z,18.36
2024-03-07T01:57:42.363Z,18.58
2024-03-07T02:00:12.912Z,18.41
2024-03-07T02:02:41.775Z,18.49
2024-03-07T02:05:11.984Z,18.22
2024-03-07T02:07:41.279Z,18.48
2024-03-07T02:10:11.937Z,18.23
2024-03-07T02:12:42.105Z,18.15
2024-03-07T02:15:11.537Z,17.71
2024-03-07T02:17:41.362Z,18.73
2024-03-07T02:20:14.451Z,18.17
2024-03-07T02:22:44.373Z,17.90
2024-03-07T02:25:13.802Z,17.76
2024-03-07T02:27:42.369Z,17.92
2024-03-07T02:30:13.611Z,17.77
2024-03-07T02:32:42.190Z,17.82
2024-03-07T02:35:12.631Z,17.65
2024-03-07T02:37:41.101Z,18.34
2024-03-07T02:40:13.149Z,18.02
2024-03-07T02:42:44.947Z,18.44
2024-03-07T02:45:16.443Z,18.54
2024-03-07T02:47:45.746Z,18.33
2024-03-07T02:50:16.224Z,18.23
2024-03-07T02:52:45.259Z,17.97
2024-03-07T02:55:15.299Z,18.68
2024-03-07T02:57:43.967Z,18.37
2024-03-07T03:00:21.597Z,17.89
2024-03-07T03:02:51.635Z,18.12
2024-03-07T03:05:20.874Z,18.15
2024-03-07T03:07:55.260Z,18.45
2024-03-07T03:10:28.162Z,17.81
2024-03-07T03:12:59.158Z,17.59
2024-03-07T03:15:28.262Z,18.60
2024-03-07T03:18:01.352Z,18.59
2024-03-07T03:20:36.603Z,19.76
2024-03-07T03:23:15.266Z,18.63
2024-03-07T03:25:51.615Z,18.22
2024-03-07T03:28:22.496Z,18.76
2024-03-07T03:30:51.536Z,16.81
2024-03-07T03:33:22.123Z,18.00
2024-03-07T03:35:51.058Z,18.19
2024-03-07T03:38:21.686Z,17.98
2024-03-07T03:40:51.750Z,18.11
2024-03-07T03:43:21.000Z,18.17
2024-03-07T03:45:49.889Z,18.80
2024-03-07T03:48:19.259Z,18.14
2024-03-07T03:50:48.639Z,17.78
2024-03-07T03:53:17.141Z,18.00
2024-03-07T03:55:46.263Z,18.43
2024-03-07T03:58:18.161Z,17.63
2024-03-07T04:00:46.790Z,18.27
2024-03-07T04:03:15.476Z,18.62
2024-03-07T04:05:44.811Z,18.20
2024-03-07T04:08:13.210Z,17.81
2024-03-07T04:10:41.940Z,17.65
2024-03-07T04:13:10.328Z,17.43
2024-03-07T04:15:42.870Z,17.27
2024-03-07T04:18:13.500Z,17.60
2024-03-07T04:20:45.622Z,17.61
2024-03-07T04:23:14.452Z,17.72
2024-03-07T04:25:43.865Z,17.50
2024-03-07T04:28:12.565Z,18.14
2024-03-07T04:30:44.301Z,17.16
2024-03-07T04:33:12.886Z,17.57
2024-03-07T04:35:41.942Z,17.47
2024-03-07T04:38:12.909Z,18.31
2024-03-07T04:40:41.388Z,16.16
2024-03-07T04:43:09.940Z,17.85
2024-03-07T04:45:38.767Z,18.06
2024-03-07T04:48:09.934Z,17.47
2024-03-07T04:50:39.405Z,17.74
2024-03-07T04:53:08.352Z,18.38
2024-03-07T04:55:36.994Z,18.26
2024-03-07T04:58:05.946Z,18.38
2024-03-07T05:00:36.478Z,17.84
2024-03-07T05:03:06.289Z,18.01
2024-03-07T05:05:36.436Z,17.43
2024-03-07T05:08:05.535Z,17.76
2024-03-07T05:10:34.180Z,17.54
2024-03-07T05:13:02.639Z,17.67
2024-03-07T05:15:32.350Z,17.73
2024-03-07T05:18:01.085Z,17.91
2024-03-07T05:20:31.668Z,17.59
2024-03-07T05:23:01.664Z,17.37
2024-03-07T05:25:32.808Z,17.47
2024-03-07T05:28:03.818Z,17.51
2024-03-07T05:30:33.869Z,17.56
2024-03-07T05:33:03.521Z,17.94
2024-03-07T05:35:32.896Z,17.92
2024-03-07T05:38:06.108Z,18.77
2024-03-07T05:40:34.803Z,18.19
2024-03-07T05:43:03.683Z,18.28
2024-03-07T05:45:32.272Z,18.92
2024-03-07T05:48:17.677Z,18.38
2024-03-07T05:50:47.815Z,19.01
2024-03-07T05:53:19.503Z,18.52
2024-03-07T05:55:48.472Z,19.39
2024-03-07T05:58:17.027Z,19.11
2024-03-07T06:00:47.919Z,21.09
2024-03-07T06:03:17.847Z,21.42
2024-03-07T06:05:49.594Z,20.39
2024-03-07T06:08:19.917Z,21.20
2024-03-07T06:10:51.635Z,20.70
2024-03-07T06:13:20.128Z,20.82
2024-03-07T06:15:50.052Z,21.34
2024-03-07T06:18:18.859Z,19.58
2024-03-07T06:20:48.185Z,18.80
2024-03-07T06:23:18.402Z,18.58
2024-03-07T06:25:52.095Z,18.44
2024-03-07T06:28:20.720Z,18.26
2024-03-07T06:30:50.268Z,17.95
2024-03-07T06:33:21.198Z,18.08
2024-03-07T06:35:53.320Z,17.85
2024-03-07T06:38:22.784Z,17.75
2024-03-07T06:40:54.030Z,18.12
2024-03-07T06:43:22.711Z,18.38
2024-03-07T06:45:51.419Z,18.37
2024-03-07T06:48:20.499Z,18.45
2024-03-07T06:50:49.297Z,18.68
2024-03-07T06:53:18.173Z,20.01
2024-03-07T06:55:47.297Z,19.81
2024-03-07T06:58:18.351Z,19.82
2024-03-07T07:00:46.508Z,18.84
2024-03-07T07:03:15.646Z,18.36
2024-03-07T07:05:45.451Z,18.15
2024-03-07T07:08:14.924Z,18.59
2024-03-07T07:10:43.922Z,18.61
2024-03-07T07:13:12.774Z,18.46
2024-03-07T07:15:43.041Z,17.41
2024-03-07T07:18:12.061Z,18.25
2024-03-07T07:20:40.908Z,18.36
2024-03-07T07:23:09.301Z,17.84
2024-03-07T07:25:38.305Z,18.08
2024-03-07T07:28:09.378Z,19.70
2024-03-07T07:30:38.489Z,19.53
2024-03-07T07:33:08.475Z,19.37
2024-03-07T07:35:37.594Z,19.69
2024-03-07T07:38:08.442Z,19.43
2024-03-07T07:40:37.564Z,19.15
2024-03-07T07:43:06.254Z,18.46
2024-03-07T07:45:37.090Z,17.77
2024-03-07T07:48:09.012Z,17.48
2024-03-07T07:50:37.704Z,17.87
2024-03-07T07:53:08.772Z,17.87
2024-03-07T07:55:37.733Z,18.07
2024-03-07T07:58:06.325Z,18.45
2024-03-07T08:00:36.960Z,19.25
2024-03-07T08:03:08.467Z,18.20
2024-03-07T08:05:38.669Z,18.53
2024-03-07T08:08:09.316Z,18.51
2024-03-07T08:10:39.639Z,18.93
2024-03-07T08:13:09.866Z,18.50
2024-03-07T08:15:38.861Z,18.94
2024-03-07T08:18:11.024Z,19.26
2024-03-07T08:20:44.416Z,19.09
2024-03-07T08:23:14.299Z,20.08
2024-03-07T08:25:43.118Z,20.83
2024-03-07T08:28:11.632Z,19.82
2024-03-07T08:30:40.407Z,19.88
2024-03-07T08:33:11.627Z,19.15
2024-03-07T08:35:41.009Z,19.31
2024-03-07T08:38:11.084Z,19.32
2024-03-07T08:40:41.152Z,18.43
2024-03-07T08:43:09.642Z,18.40
2024-03-07T08:45:38.537Z,19.04
2024-03-07T08:48:08.703Z,19.48
2024-03-07T08:50:40.348Z,18.12
2024-03-07T08:53:10.223Z,18.24
2024-03-07T08:55:39.067Z,18.58
2024-03-07T08:58:09.334Z,18.99
2024-03-07T09:00:39.965Z,19.29
2024-03-07T09:03:12.564Z,19.24
2024-03-07T09:05:44.053Z,17.98
2024-03-07T09:08:13.254Z,19.31
2024-03-07T09:10:43.701Z,19.25
2024-03-07T09:13:12.625Z,19.92
2024-03-07T09:15:41.380Z,18.91
2024-03-07T09:18:10.524Z,19.20
2024-03-07T09:20:40.236Z,19.75
2024-03-07T09:23:10.964Z,18.21
2024-03-07T09:25:41.248Z,19.82
2024-03-07T09:28:09.748Z,19.09
2024-03-07T09:30:40.177Z,19.49
2024-03-07T09:33:13.445Z,18.72
2024-03-07T09:35:42.361Z,17.82
2024-03-07T09:38:12.915Z,18.14
2024-03-07T09:40:41.651Z,19.68
2024-03-07T09:43:12.354Z,19.83
2024-03-07T09:45:46.820Z,19.10
2024-03-07T09:48:18.889Z,18.94
2024-03-07T09:50:49.132Z,18.53
2024-03-07T09:53:19.917Z,19.19
2024-03-07T09:55:49.019Z,19.28
2024-03-07T09:58:18.005Z,18.63
2024-03-07T10:00:48.245Z,18.23
2024-03-07T10:03:18.868Z,18.84
2024-03-07T10:05:47.776Z,19.15
2024-03-07T10:08:16.517Z,19.38
2024-03-07T10:10:48.942Z,19.68
2024-03-07T10:13:18.749Z,20.07
2024-03-07T10:15:48.914Z,19.45
2024-03-07T10:18:20.328Z,19.68
2024-03-07T10:20:49.816Z,18.64
2024-03-07T10:23:21.886Z,18.11
2024-03-07T10:25:52.342Z,18.71
2024-03-07T10:28:22.066Z,19.00
2024-03-07T10:30:52.653Z,18.50
2024-03-07T10:33:21.375Z,18.32
2024-03-07T10:35:51.697Z,19.47
2024-03-07T10:38:20.741Z,18.78
2024-03-07T10:40:51.560Z,18.69
2024-03-07T10:43:21.999Z,18.75
2024-03-07T10:45:53.119Z,19.13
2024-03-07T10:48:25.761Z,18.28
2024-03-07T10:51:02.862Z,17.77
2024-03-07T10:53:35.361Z,19.16
2024-03-07T10:56:23.097Z,18.59
2024-03-07T10:59:00.600Z,18.23
2024-03-07T11:01:34.623Z,18.57
2024-03-07T11:04:05.515Z,18.24
2024-03-07T11:06:35.154Z,17.83
2024-03-07T11:09:11.466Z,19.42
2024-03-07T11:11:43.624Z,20.00
2024-03-07T11:14:13.711Z,19.72
2024-03-07T11:16:43.126Z,18.74
2024-03-07T11:19:20.856Z,18.02
2024-03-07T11:21:52.516Z,19.64
2024-03-07T11:24:34.008Z,19.76
2024-03-07T11:27:06.002Z,18.94
2024-03-07T11:29:45.926Z,17.61
2024-03-07T11:32:16.185Z,19.70
2024-03-07T11:34:48.018Z,19.64
2024-03-07T11:37:24.297Z,18.29
2024-03-07T11:39:55.180Z,19.11
2024-03-07T11:42:30.134Z,17.60
2024-03-07T11:44:59.556Z,17.33
2024-03-07T11:47:30.893Z,18.63
2024-03-07T11:50:00.442Z,17.25
2024-03-07T11:52:30.015Z,18.09
2024-03-07T11:55:05.700Z,18.07
2024-03-07T11:57:36.491Z,17.77
2024-03-07T12:00:09.904Z,18.06
2024-03-07T12:02:39.663Z,18.50
2024-03-07T12:05:08.985Z,18.69
2024-03-07T12:07:39.733Z,19.08
2024-03-07T12:10:11.519Z,19.29
2024-03-07T12:12:41.857Z,18.64
2024-03-07T12:15:21.174Z,18.11
2024-03-07T12:17:51.823Z,17.89
2024-03-07T12:20:32.432Z,17.68
2024-03-07T12:23:04.483Z,17.83
2024-03-07T12:25:35.586Z,17.59
2024-03-07T12:28:07.588Z,16.65
2024-03-07T12:30:43.054Z,17.31
2024-03-07T12:33:12.122Z,17.94
2024-03-07T12:35:43.264Z,18.39
2024-03-07T12:38:14.736Z,17.35
2024-03-07T12:40:46.568Z,18.86
2024-03-07T12:43:19.001Z,18.68
2024-03-07T12:45:50.357Z,17.66
2024-03-07T12:48:19.207Z,18.28
2024-03-07T12:50:48.420Z,16.71
2024-03-07T12:53:19.569Z,17.10
2024-03-07T12:55:47.942Z,16.81
2024-03-07T12:58:18.347Z,16.55
2024-03-07T13:00:46.583Z,17.85
2024-03-07T13:03:15.984Z,17.48
2024-03-07T13:05:44.518Z,17.86
2024-03-07T13:08:13.869Z,17.65
2024-03-07T13:10:42.706Z,18.33
2024-03-07T13:13:12.390Z,17.68
2024-03-07T13:15:43.834Z,18.37
2024-03-07T13:18:12.706Z,18.74
2024-03-07T13:20:44.775Z,18.57
2024-03-07T13:23:13.619Z,17.59
2024-03-07T13:25:42.553Z,17.90
2024-03-07T13:28:15.102Z,17.98
2024-03-07T13:30:50.437Z,17.46
2024-03-07T13:33:20.364Z,18.04
2024-03-07T13:35:48.901Z,18.09
2024-03-07T13:38:17.959Z,17.37
2024-03-07T13:40:46.679Z,18.42
2024-03-07T13:43:16.402Z,18.43
2024-03-07T13:45:46.591Z,17.51
2024-03-07T13:48:15.570Z,18.61
2024-03-07T13:50:55.969Z,17.63
2024-03-07T13:53:34.573Z,17.04
2024-03-07T13:56:42.376Z,17.19
2024-03-07T13:59:39.722Z,17.32
2024-03-07T14:02:26.062Z,18.44
2024-03-07T14:05:16.988Z,17.73
2024-03-07T14:07:58.443Z,18.14
2024-03-07T14:11:05.605Z,16.97
2024-03-07T14:13:44.503Z,17.53
2024-03-07T14:16:25.177Z,16.95
2024-03-07T14:19:37.890Z,16.32
2024-03-07T14:22:29.032Z,16.67
2024-03-07T14:25:18.775Z,16.88
2024-03-07T14:28:09.316Z,16.86
2024-03-07T14:30:45.071Z,16.60
2024-03-07T14:33:17.980Z,17.50
2024-03-07T14:36:06.436Z,16.30
2024-03-07T14:38:49.682Z,16.60
2024-03-07T14:41:18.890Z,17.70
2024-03-07T14:43:47.846Z,17.35
2024-03-07T14:46:18.001Z,16.23
2024-03-07T14:48:46.593Z,16.59
2024-03-07T14:51:17.097Z,16.31
2024-03-07T14:53:46.864Z,16.41
2024-03-07T14:56:15.321Z,15.88
2024-03-07T14:58:43.972Z,16.35
2024-03-07T15:01:13.405Z,15.86
2024-03-07T15:03:46.815Z,17.32
2024-03-07T15:06:17.087Z,16.57
2024-03-07T15:08:45.708Z,16.70
2024-03-07T15:11:18.775Z,17.55
2024-03-07T15:13:48.996Z,16.85
2024-03-07T15:16:28.971Z,17.29
2024-03-07T15:19:02.352Z,17.44
2024-03-07T15:21:31.942Z,16.92
2024-03-07T15:24:01.426Z,17.38
2024-03-07T15:26:32.500Z,16.54
2024-03-07T15:29:02.524Z,17.20
2024-03-07T15:31:31.400Z,17.58
2024-03-07T15:34:00.314Z,17.63
2024-03-07T15:36:30.751Z,17.40
2024-03-07T15:39:05.170Z,16.68
2024-03-07T15:41:34.845Z,16.80
2024-03-07T15:44:03.644Z,16.54
2024-03-07T15:46:31.899Z,16.21
2024-03-07T15:49:01.936Z,15.85
2024-03-07T15:51:30.404Z,16.01
2024-03-07T15:54:00.660Z,17.49
2024-03-07T15:56:29.301Z,16.77
2024-03-07T15:58:58.247Z,17.34
2024-03-07T16:01:26.624Z,17.95
2024-03-07T16:03:56.067Z,16.75
2024-03-07T16:06:24.395Z,17.24
2024-03-07T16:08:53.158Z,16.89
2024-03-07T16:11:25.581Z,17.09
2024-03-07T16:13:54.573Z,17.29
2024-03-07T16:16:22.990Z,17.80
2024-03-07T16:18:53.839Z,17.31
2024-03-07T16:21:23.739Z,16.91
2024-03-07T16:23:54.828Z,17.32
2024-03-07T16:26:24.810Z,17.73
2024-03-07T16:28:53.477Z,17.81
2024-03-07T16:31:21.855Z,17.99
2024-03-07T16:33:50.627Z,18.12
2024-03-07T16:36:19.146Z,17.06
2024-03-07T16:38:47.843Z,16.71
2024-03-07T16:41:16.480Z,16.03
2024-03-07T16:43:47.880Z,16.27
2024-03-07T16:46:18.068Z,17.67
2024-03-07T16:48:47.992Z,16.84
2024-03-07T16:51:19.255Z,16.83
2024-03-07T16:53:48.163Z,17.32
2024-03-07T16:56:17.187Z,17.08
2024-03-07T16:58:48.504Z,16.65
2024-03-07T17:01:16.988Z,17.20
2024-03-07T17:03:45.789Z,17.90
2024-03-07T17:06:14.111Z,16.83
2024-03-07T17:08:43.103Z,16.50
2024-03-07T17:11:14.547Z,16.51
2024-03-07T17:13:44.182Z,17.28
2024-03-07T17:16:14.048Z,17.53
2024-03-07T17:18:43.021Z,17.42
2024-03-07T17:21:11.966Z,16.41
2024-03-07T17:23:40.581Z,16.40
2024-03-07T17:26:09.054Z,16.61
2024-03-07T17:28:37.611Z,17.67
2024-03-07T17:31:06.829Z,16.97
2024-03-07T17:33:41.084Z,17.07
2024-03-07T17:36:11.111Z,16.73
2024-03-07T17:38:39.988Z,17.27
2024-03-07T17:41:09.421Z,16.65
2024-03-07T17:43:38.618Z,17.31
2024-03-07T17:46:08.350Z,17.42
2024-03-07T17:48:38.977Z,16.31
2024-03-07T17:51:08.414Z,17.22
2024-03-07T17:53:38.650Z,16.75
2024-03-07T17:56:07.895Z,16.53
2024-03-07T17:58:37.093Z,17.62
2024-03-07T18:01:08.381Z,17.57
2024-03-07T18:03:39.392Z,17.24
2024-03-07T18:06:10.395Z,17.30
2024-03-07T18:08:45.538Z,17.47
2024-03-07T18:11:20.313Z,17.68
2024-03-07T18:13:49.095Z,17.49
2024-03-07T18:16:18.595Z,17.81
2024-03-07T18:18:51.114Z,17.79
2024-03-07T18:21:20.143Z,17.99
2024-03-07T18:23:50.317Z,17.65
2024-03-07T18:26:19.946Z,17.63
2024-03-07T18:28:48.579Z,17.37
2024-03-07T18:31:19.379Z,17.82
2024-03-07T18:33:52.269Z,18.85
2024-03-07T18:36:22.796Z,18.63
2024-03-07T18:38:53.922Z,17.84
2024-03-07T18:41:22.344Z,18.64
2024-03-07T18:43:51.899Z,17.85
2024-03-07T18:46:20.551Z,17.71
2024-03-07T18:48:51.217Z,17.83
2024-03-07T18:51:24.304Z,17.99
2024-03-07T18:53:54.843Z,18.52
2024-03-07T18:56:24.741Z,17.91
2024-03-07T18:58:53.495Z,17.89
2024-03-07T19:01:22.403Z,18.52
2024-03-07T19:03:52.398Z,17.60
2024-03-07T19:06:21.033Z,18.27
2024-03-07T19:08:49.954Z,18.20
2024-03-07T19:11:19.473Z,18.11
2024-03-07T19:13:48.374Z,18.03
2024-03-07T19:16:17.150Z,17.70
2024-03-07T19:18:47.239Z,17.72
2024-03-07T19:21:17.276Z,17.39
2024-03-07T19:23:47.694Z,18.28
2024-03-07T19:26:21.191Z,17.88
2024-03-07T19:28:50.614Z,17.62
2024-03-07T19:31:19.260Z,17.87
2024-03-07T19:33:48.069Z,17.47
2024-03-07T19:36:18.030Z,17.10
2024-03-07T19:38:48.925Z,17.70
2024-03-07T19:41:18.040Z,17.45
2024-03-07T19:43:46.663Z,17.48
2024-03-07T19:46:15.037Z,17.28
2024-03-07T19:48:45.164Z,17.46
2024-03-07T19:51:13.917Z,18.44
2024-03-07T19:53:44.297Z,17.40
2024-03-07T19:56:22.503Z,17.26
2024-03-07T19:58:51.299Z,17.53
2024-03-07T20:01:19.771Z,18.24
2024-03-07T20:03:48.472Z,18.74
2024-03-07T20:06:16.855Z,18.01
2024-03-07T20:08:47.526Z,17.72
2024-03-07T20:11:15.981Z,18.14
2024-03-07T20:13:44.915Z,18.02
2024-03-07T20:16:14.476Z,18.04
2024-03-07T20:18:45.244Z,18.02
2024-03-07T20:21:13.882Z,17.57
2024-03-07T20:23:42.954Z,18.18
2024-03-07T20:26:12.905Z,18.20
2024-03-07T20:28:41.655Z,18.84
2024-03-07T20:31:10.269Z,19.01
2024-03-07T20:33:39.372Z,19.12
2024-03-07T20:36:10.313Z,18.30
2024-03-07T20:38:39.924Z,18.73
2024-03-07T20:41:08.425Z,18.94
2024-03-07T20:43:40.003Z,18.40
2024-03-07T20:46:08.624Z,19.34
2024-03-07T20:48:37.981Z,18.58
2024-03-07T20:51:07.541Z,18.45
2024-03-07T20:53:36.608Z,18.09
2024-03-07T20:56:08.013Z,18.41
2024-03-07T20:58:37.666Z,18.14
2024-03-07T21:01:10.834Z,18.96
2024-03-07T21:03:42.666Z,19.14
2024-03-07T21:06:13.045Z,18.81
2024-03-07T21:08:43.722Z,18.66
2024-03-07T21:11:13.485Z,18.64
2024-03-07T21:13:43.152Z,18.30
2024-03-07T21:16:13.593Z,17.98
2024-03-07T21:18:42.770Z,18.28
2024-03-07T21:21:11.886Z,17.95
2024-03-07T21:23:41.723Z,18.03
2024-03-07T21:26:13.353Z,17.98
2024-03-07T21:28:42.117Z,18.03
2024-03-07T21:31:12.768Z,18.23
2024-03-07T21:33:41.771Z,18.39
2024-03-07T21:36:11.299Z,18.34
2024-03-07T21:38:40.244Z,18.09
2024-03-07T21:41:10.196Z,18.08
2024-03-07T21:43:38.915Z,17.86
2024-03-07T21:46:07.715Z,17.81
2024-03-07T21:48:39.765Z,17.73
2024-03-07T21:51:11.629Z,17.54
2024-03-07T21:53:45.431Z,17.99
2024-03-07T21:56:14.435Z,18.00
2024-03-07T21:58:43.092Z,18.30
2024-03-07T22:01:13.903Z,18.28
2024-03-07T22:03:44.367Z,18.37
2024-03-07T22:06:15.732Z,18.47
2024-03-07T22:08:44.026Z,18.58
2024-03-07T22:11:17.537Z,18.14
2024-03-07T22:13:47.667Z,17.43
2024-03-07T22:16:16.826Z,18.70
2024-03-07T22:18:48.093Z,18.68
2024-03-07T22:21:17.215Z,18.76
2024-03-07T22:23:46.070Z,18.93
2024-03-07T22:26:14.913Z,19.01
2024-03-07T22:28:43.611Z,18.58
2024-03-07T22:31:12.669Z,18.72
2024-03-07T22:33:41.954Z,18.81
2024-03-07T22:36:12.143Z,18.18
2024-03-07T22:38:40.670Z,18.46
2024-03-07T22:41:09.405Z,18.55
2024-03-07T22:43:38.092Z,19.22
2024-03-07T22:46:08.576Z,18.76
2024-03-07T22:48:37.413Z,19.04
2024-03-07T22:51:07.172Z,19.13
2024-03-07T22:53:37.277Z,18.71
2024-03-07T22:56:06.524Z,18.78
2024-03-07T22:58:35.045Z,18.95
2024-03-07T23:01:05.593Z,19.03
2024-03-07T23:03:34.356Z,19.23
2024-03-07T23:06:03.290Z,19.14
2024-03-07T23:08:31.631Z,19.41
2024-03-07T23:11:01.955Z,18.97
2024-03-07T23:13:30.373Z,19.23
2024-03-07T23:15:59.191Z,19.02
2024-03-07T23:18:27.593Z,18.87
2024-03-07T23:20:57.732Z,18.82
2024-03-07T23:23:26.191Z,18.58
2024-03-07T23:25:55.029Z,18.75
2024-03-07T23:28:25.166Z,18.85
2024-03-07T23:30:53.877Z,19.05
2024-03-07T23:33:22.825Z,18.93
2024-03-07T23:35:51.499Z,18.62
2024-03-07T23:38:19.935Z,18.62
2024-03-07T23:40:48.548Z,18.81
2024-03-07T23:43:19.157Z,19.21
2024-03-07T23:45:49.234Z,18.99
2024-03-07T23:48:18.740Z,19.58
2024-03-07T23:50:47.618Z,19.46
2024-03-07T23:53:15.959Z,19.23
2024-03-07T23:55:44.654Z,19.00
2024-03-07T23:58:12.933Z,19.60
